Time;durP1;ratioP1;P1;durP2;ratioP2;P2;SDS_P1;SDS_P2;PMS_P1;PMS_P2;Temp;Humidity;BMP_temperature;BMP_pressure;BME280_temperature;BME280_humidity;BME280_pressure;Samples;Min_cycle;Max_cycle;Signal;HPM_P1;HPM_P2
2023/01/04 00:00:35;;;;;;;0.00;0.00;;;6.20;99.90;;;;;;5028893;28;20076;-72
2023/01/04 00:03:02;;;;;;;0.00;0.00;;;6.00;99.90;;;;;;5028848;28;20032;-73
2023/01/04 00:05:27;;;;;;;;;;;5.90;99.90;;;;;;5040877;28;20276;-73
2023/01/04 00:07:53;;;;;;;0.10;0.10;;;5.80;99.90;;;;;;5033190;28;20034;-73
2023/01/04 00:10:19;;;;;;;0.03;0.03;;;5.80;99.90;;;;;;5030235;28;20032;-74
2023/01/04 00:12:44;;;;;;;0.00;0.00;;;5.70;99.90;;;;;;5045555;28;20501;-73
2023/01/04 00:15:10;;;;;;;0.10;0.10;;;5.70;99.90;;;;;;5028533;28;20076;-73
2023/01/04 00:17:36;;;;;;;0.00;0.00;;;5.70;99.90;;;;;;5030015;28;20029;-73
2023/01/04 00:20:01;;;;;;;0.00;0.00;;;5.70;99.90;;;;;;5029507;28;20063;-73
2023/01/04 00:22:27;;;;;;;0.00;0.00;;;5.60;99.90;;;;;;5028067;28;20049;-73
2023/01/04 00:24:53;;;;;;;0.10;0.10;;;5.60;99.90;;;;;;5032284;28;20025;-73
2023/01/04 00:27:18;;;;;;;0.20;0.20;;;5.50;99.90;;;;;;5029068;28;20681;-73
2023/01/04 00:29:44;;;;;;;0.00;0.00;;;5.60;99.90;;;;;;5027798;28;20080;-73
2023/01/04 00:32:09;;;;;;;0.00;0.00;;;5.50;99.90;;;;;;5040597;28;20026;-73
2023/01/04 00:34:35;;;;;;;0.03;0.03;;;5.60;99.90;;;;;;5030589;28;20760;-73
2023/01/04 00:37:01;;;;;;;0.10;0.10;;;5.50;99.90;;;;;;5026395;28;20070;-73
2023/01/04 00:39:28;;;;;;;0.00;0.00;;;5.60;99.90;;;;;;5031964;28;20021;-73
2023/01/04 00:42:03;;;;;;;0.10;0.10;;;5.50;99.90;;;;;;5031262;28;20017;-73
2023/01/04 00:44:31;;;;;;;0.00;0.00;;;5.50;99.90;;;;;;5027975;28;20071;-73
2023/01/04 00:46:57;;;;;;;1.90;0.30;;;5.50;99.90;;;;;;5026720;28;20418;-73
2023/01/04 00:49:23;;;;;;;;;;;5.50;99.90;;;;;;5030290;28;20038;-73
2023/01/04 00:51:49;;;;;;;0.00;0.00;;;5.50;99.90;;;;;;5030889;28;19989;-73
2023/01/04 00:54:15;;;;;;;0.00;0.00;;;5.50;99.90;;;;;;5039188;28;20018;-73
2023/01/04 00:56:40;;;;;;;0.00;0.00;;;5.50;99.90;;;;;;5029286;28;20013;-73
2023/01/04 00:59:06;;;;;;;0.00;0.00;;;5.50;99.90;;;;;;5030669;28;20072;-73
2023/01/04 01:01:33;;;;;;;0.10;0.10;;;5.40;99.90;;;;;;5032435;28;20065;-73
2023/01/04 01:04:01;;;;;;;0.00;0.00;;;5.50;99.90;;;;;;5033092;28;20081;-73
2023/01/04 01:06:28;;;;;;;0.00;0.00;;;5.40;99.90;;;;;;5032711;28;20022;-73
2023/01/04 01:08:55;;;;;;;0.00;0.00;;;5.50;99.90;;;;;;5034383;28;20118;-73
2023/01/04 01:11:21;;;;;;;0.28;0.28;;;5.50;99.90;;;;;;5036410;28;20379;-73
2023/01/04 01:13:47;;;;;;;0.00;0.00;;;5.50;99.90;;;;;;5035676;28;20033;-73
2023/01/04 01:16:15;;;;;;;;;;;5.70;99.90;;;;;;5031521;28;20010;-73
2023/01/04 01:18:42;;;;;;;0.00;0.00;;;5.80;99.90;;;;;;5031603;28;20021;-73
2023/01/04 01:21:15;;;;;;;0.00;0.00;;;5.90;99.90;;;;;;5032096;28;20117;-73
2023/01/04 01:23:42;;;;;;;0.80;0.38;;;5.90;99.90;;;;;;5039227;28;20025;-73
2023/01/04 01:26:11;;;;;;;0.00;0.00;;;5.90;99.90;;;;;;5030318;28;20053;-73
2023/01/04 01:28:37;;;;;;;0.00;0.00;;;5.90;99.90;;;;;;5028128;28;20049;-73
2023/01/04 01:31:09;;;;;;;0.00;0.00;;;6.00;99.90;;;;;;5035051;28;20071;-73
2023/01/04 01:33:39;;;;;;;0.00;0.00;;;6.00;99.90;;;;;;5032622;28;20038;-73
2023/01/04 01:36:06;;;;;;;0.00;0.00;;;6.10;99.90;;;;;;5032080;28;20068;-73
2023/01/04 01:38:39;;;;;;;0.00;0.00;;;6.10;99.90;;;;;;5032541;28;20026;-73
2023/01/04 01:41:06;;;;;;;0.00;0.00;;;6.20;99.90;;;;;;5031153;28;20051;-73
2023/01/04 01:43:56;;;;;;;0.00;0.00;;;6.20;99.90;;;;;;5033469;28;20032;-73
2023/01/04 01:46:25;;;;;;;0.15;0.15;;;6.20;99.90;;;;;;5026835;28;20060;-73
2023/01/04 01:48:55;;;;;;;0.00;0.00;;;6.20;99.90;;;;;;5032127;28;20049;-73
2023/01/04 01:51:21;;;;;;;0.00;0.00;;;6.20;99.90;;;;;;5030429;28;20099;-72
2023/01/04 01:53:53;;;;;;;0.00;0.00;;;6.20;99.90;;;;;;5033912;28;20240;-73
2023/01/04 01:56:19;;;;;;;0.05;0.05;;;6.10;99.90;;;;;;5033652;28;20029;-73
2023/01/04 01:58:51;;;;;;;0.00;0.00;;;6.00;99.90;;;;;;5045230;28;20025;-73
2023/01/04 02:01:17;;;;;;;0.00;0.00;;;6.00;99.90;;;;;;5028936;28;20032;-73
2023/01/04 02:03:44;;;;;;;0.00;0.00;;;6.00;99.90;;;;;;5031397;28;20033;-73
2023/01/04 02:06:11;;;;;;;;;;;5.90;99.90;;;;;;5030893;28;20041;-73
2023/01/04 02:08:39;;;;;;;0.00;0.00;;;5.80;99.90;;;;;;5035264;28;20274;-73
2023/01/04 02:11:05;;;;;;;0.00;0.00;;;5.70;99.90;;;;;;5032182;28;20048;-73
2023/01/04 02:16:38;;;;;;;0.10;0.10;;;5.60;99.90;;;;;;5026410;28;20079;-73
2023/01/04 02:19:20;;;;;;;0.00;0.00;;;5.50;99.90;;;;;;5029188;28;20022;-73
2023/01/04 02:22:17;;;;;;;0.00;0.00;;;5.50;99.90;;;;;;5030998;28;20607;-73
2023/01/04 02:24:53;;;;;;;0.10;0.10;;;5.50;99.90;;;;;;5046487;28;20030;-73
2023/01/04 02:27:42;;;;;;;0.10;0.10;;;5.50;99.90;;;;;;5026296;28;20083;-73
2023/01/04 02:30:46;;;;;;;0.00;0.00;;;5.50;99.90;;;;;;5026664;28;20087;-73
2023/01/04 02:33:50;;;;;;;0.00;0.00;;;5.50;99.90;;;;;;5030205;28;20029;-73
2023/01/04 02:36:27;;;;;;;0.00;0.00;;;5.50;99.90;;;;;;5030853;28;20022;-73
2023/01/04 02:39:07;;;;;;;0.00;0.00;;;5.40;99.90;;;;;;5030117;28;20030;-73
2023/01/04 02:41:46;;;;;;;0.00;0.00;;;5.40;99.90;;;;;;5030578;28;20038;-73
2023/01/04 02:45:03;;;;;;;0.00;0.00;;;5.40;99.90;;;;;;5037860;28;20418;-73
2023/01/04 02:50:32;;;;;;;0.00;0.00;;;5.40;99.90;;;;;;5028676;28;20084;-72
2023/01/04 02:53:09;;;;;;;0.00;0.00;;;5.30;99.90;;;;;;5034348;28;20051;-77
2023/01/04 02:55:39;;;;;;;;;;;5.30;99.90;;;;;;5028035;28;21463;-73
2023/01/04 02:58:35;;;;;;;0.00;0.00;;;5.30;99.90;;;;;;5028236;28;19955;-73
2023/01/04 03:07:32;;;;;;;0.00;0.00;;;5.20;99.90;;;;;;5025548;28;20489;-73
2023/01/04 03:10:18;;;;;;;0.15;0.15;;;5.20;99.90;;;;;;5012640;28;20376;-73
2023/01/04 03:13:00;;;;;;;0.00;0.00;;;5.10;99.90;;;;;;5026008;28;20038;-73
2023/01/04 03:15:32;;;;;;;0.00;0.00;;;5.10;99.90;;;;;;5027941;28;20025;-73
2023/01/04 03:18:27;;;;;;;0.10;0.10;;;5.10;99.90;;;;;;5030707;28;20032;-72
2023/01/04 03:20:55;;;;;;;0.00;0.00;;;5.10;99.90;;;;;;5021097;28;20029;-73
2023/01/04 03:37:46;;;;;;;0.00;0.00;;;4.80;99.90;;;;;;5034359;28;20048;-73
2023/01/04 03:48:53;;;;;;;0.00;0.00;;;4.70;99.90;;;;;;5031160;28;20418;-73
2023/01/04 03:51:25;;;;;;;0.00;0.00;;;4.70;99.90;;;;;;5028175;28;20021;-73
2023/01/04 03:53:54;;;;;;;0.00;0.00;;;4.60;99.90;;;;;;5034553;28;20021;-73
2023/01/04 03:56:22;;;;;;;0.00;0.00;;;4.60;99.90;;;;;;5046077;28;20052;-73
2023/01/04 03:58:49;;;;;;;0.00;0.00;;;4.60;99.90;;;;;;5020364;28;20048;-75
2023/01/04 04:01:16;;;;;;;;;;;4.70;99.90;;;;;;5030707;28;20021;-74
2023/01/04 04:09:11;;;;;;;0.00;0.00;;;4.50;99.90;;;;;;5037057;28;20063;-73
2023/01/04 04:11:38;;;;;;;0.00;0.00;;;4.50;99.90;;;;;;5028004;28;20056;-73
2023/01/04 04:14:03;;;;;;;0.00;0.00;;;4.50;99.90;;;;;;5030972;28;20065;-72
2023/01/04 04:16:29;;;;;;;0.00;0.00;;;4.50;99.90;;;;;;5025421;28;20053;-73
2023/01/04 04:18:54;;;;;;;0.00;0.00;;;4.50;99.90;;;;;;5026905;28;20034;-72
2023/01/04 04:21:20;;;;;;;0.93;0.93;;;4.40;99.90;;;;;;5028871;28;20100;-73
2023/01/04 04:23:46;;;;;;;0.00;0.00;;;4.50;99.90;;;;;;5035546;28;20029;-73
2023/01/04 04:26:12;;;;;;;0.20;0.20;;;4.40;99.90;;;;;;5026714;28;20040;-73
2023/01/04 04:28:38;;;;;;;0.00;0.00;;;4.40;99.90;;;;;;5033371;28;20037;-73
2023/01/04 04:31:04;;;;;;;0.00;0.00;;;4.30;99.90;;;;;;5034159;28;20083;-72
2023/01/04 04:33:30;;;;;;;0.00;0.00;;;4.30;99.90;;;;;;5032729;28;20029;-72
2023/01/04 04:35:56;;;;;;;0.00;0.00;;;4.30;99.90;;;;;;5034363;28;20370;-73
2023/01/04 04:38:22;;;;;;;0.00;0.00;;;4.30;99.90;;;;;;5039793;28;20037;-73
2023/01/04 04:43:38;;;;;;;0.00;0.00;;;4.30;99.90;;;;;;5036490;28;20125;-73
2023/01/04 04:46:04;;;;;;;0.00;0.00;;;4.30;99.90;;;;;;5034220;28;20531;-73
2023/01/04 04:48:29;;;;;;;0.00;0.00;;;4.20;99.90;;;;;;5036099;28;20047;-73
2023/01/04 04:50:55;;;;;;;0.00;0.00;;;4.20;99.90;;;;;;5047572;28;20022;-73
2023/01/04 04:53:21;;;;;;;0.00;0.00;;;4.20;99.90;;;;;;5039748;28;20032;-73
2023/01/04 04:55:49;;;;;;;0.00;0.00;;;4.20;99.90;;;;;;5032216;28;20040;-73
2023/01/04 04:58:14;;;;;;;0.00;0.00;;;4.20;99.90;;;;;;5029254;28;20021;-73
2023/01/04 05:00:40;;;;;;;0.00;0.00;;;4.20;99.90;;;;;;5035655;28;20048;-72
2023/01/04 05:03:06;;;;;;;0.00;0.00;;;4.20;99.90;;;;;;5035861;28;20036;-73
2023/01/04 05:05:31;;;;;;;0.00;0.00;;;4.10;99.90;;;;;;5035026;28;20048;-73
2023/01/04 05:07:57;;;;;;;0.00;0.00;;;4.10;99.90;;;;;;5040057;28;20106;-73
2023/01/04 05:10:23;;;;;;;0.00;0.00;;;4.10;99.90;;;;;;5033408;28;20029;-73
2023/01/04 05:13:00;;;;;;;0.53;0.30;;;4.10;99.90;;;;;;5033771;28;20116;-73
2023/01/04 05:15:33;;;;;;;0.00;0.00;;;4.10;99.90;;;;;;5032351;28;20018;-72
2023/01/04 05:17:58;;;;;;;0.00;0.00;;;4.10;99.90;;;;;;5035430;28;20014;-73
2023/01/04 05:20:24;;;;;;;0.00;0.00;;;4.10;99.90;;;;;;5035419;28;20028;-72
2023/01/04 05:22:50;;;;;;;0.00;0.00;;;4.10;99.90;;;;;;5046817;28;20036;-73
2023/01/04 05:25:16;;;;;;;0.00;0.00;;;4.00;99.90;;;;;;5053730;28;20068;-73
2023/01/04 05:27:42;;;;;;;0.15;0.15;;;4.00;99.90;;;;;;5031638;28;20079;-73
2023/01/04 05:33:12;;;;;;;0.00;0.00;;;4.10;99.90;;;;;;5001237;28;20798;-75
2023/01/04 05:35:38;;;;;;;0.00;0.00;;;4.10;99.90;;;;;;5037736;28;20129;-72
2023/01/04 05:38:07;;;;;;;0.00;0.00;;;4.10;99.90;;;;;;5039487;28;20815;-73
2023/01/04 05:40:32;;;;;;;0.08;0.08;;;4.10;99.90;;;;;;5036221;28;20017;-73
2023/01/04 05:42:58;;;;;;;0.00;0.00;;;3.90;99.90;;;;;;5030903;28;20027;-73
2023/01/04 05:45:23;;;;;;;0.00;0.00;;;3.90;99.90;;;;;;5043160;28;20111;-73
2023/01/04 05:47:50;;;;;;;0.00;0.00;;;3.90;99.90;;;;;;5031717;28;20022;-72
2023/01/04 05:50:17;;;;;;;0.00;0.00;;;3.80;99.90;;;;;;5044380;28;20026;-73
2023/01/04 05:52:44;;;;;;;0.98;0.15;;;3.80;99.90;;;;;;5033347;28;20021;-73
2023/01/04 05:55:11;;;;;;;1.27;0.90;;;3.70;99.90;;;;;;5032652;28;20735;-73
2023/01/04 05:57:37;;;;;;;0.00;0.00;;;3.70;99.90;;;;;;5028600;28;20032;-73
2023/01/04 06:00:04;;;;;;;0.00;0.00;;;3.70;99.90;;;;;;5042203;28;20654;-72
2023/01/04 06:02:31;;;;;;;0.08;0.08;;;3.60;99.90;;;;;;5029671;28;20310;-73
2023/01/04 06:04:59;;;;;;;0.00;0.00;;;3.60;99.90;;;;;;5031789;28;20029;-73
2023/01/04 06:07:28;;;;;;;0.00;0.00;;;3.60;99.90;;;;;;5028355;28;20769;-73
2023/01/04 06:09:55;;;;;;;0.00;0.00;;;3.50;99.90;;;;;;5031284;28;20079;-73
2023/01/04 06:12:21;;;;;;;;;;;3.60;99.90;;;;;;5029024;28;20107;-73
2023/01/04 06:14:49;;;;;;;0.00;0.00;;;3.50;99.90;;;;;;5032125;28;19913;-72
2023/01/04 06:17:18;;;;;;;0.00;0.00;;;3.50;99.90;;;;;;5048738;28;20017;-73
2023/01/04 06:19:44;;;;;;;0.00;0.00;;;3.40;99.90;;;;;;5030007;28;20021;-73
2023/01/04 06:22:10;;;;;;;0.00;0.00;;;3.40;99.90;;;;;;5029066;28;20116;-73
2023/01/04 06:24:35;;;;;;;0.00;0.00;;;3.30;99.90;;;;;;5033474;28;20132;-73
2023/01/04 06:27:03;;;;;;;0.00;0.00;;;3.30;99.90;;;;;;5031391;28;20017;-73
2023/01/04 06:29:28;;;;;;;0.00;0.00;;;3.30;99.90;;;;;;5027307;28;20018;-73
2023/01/04 06:31:54;;;;;;;0.00;0.00;;;3.30;99.90;;;;;;5030547;28;20039;-73
2023/01/04 06:34:20;;;;;;;0.00;0.00;;;3.30;99.90;;;;;;5031559;28;20059;-72
2023/01/04 06:36:46;;;;;;;0.00;0.00;;;3.30;99.90;;;;;;5027418;28;20402;-73
2023/01/04 06:39:11;;;;;;;0.00;0.00;;;3.30;99.90;;;;;;5031551;28;20036;-73
2023/01/04 06:41:37;;;;;;;0.00;0.00;;;3.30;99.90;;;;;;5031733;28;20030;-73
2023/01/04 06:44:03;;;;;;;0.00;0.00;;;3.30;99.90;;;;;;5032317;28;20028;-72
2023/01/04 06:46:29;;;;;;;0.00;0.00;;;3.30;99.90;;;;;;5026840;28;20488;-73
2023/01/04 06:48:54;;;;;;;0.00;0.00;;;3.20;99.90;;;;;;5030613;28;20037;-73
2023/01/04 06:51:20;;;;;;;0.00;0.00;;;3.30;99.90;;;;;;5030080;28;20105;-73
2023/01/04 06:53:46;;;;;;;0.00;0.00;;;3.40;99.90;;;;;;5035934;28;20704;-72
2023/01/04 06:56:13;;;;;;;0.00;0.00;;;3.60;99.90;;;;;;5029459;28;20037;-73
2023/01/04 06:58:39;;;;;;;0.00;0.00;;;3.80;99.90;;;;;;5028200;28;20109;-72
2023/01/04 07:01:07;;;;;;;0.00;0.00;;;3.90;99.90;;;;;;5030255;28;20120;-72
2023/01/04 07:03:33;;;;;;;0.00;0.00;;;4.10;99.90;;;;;;5029735;28;20030;-72
2023/01/04 07:06:04;;;;;;;0.00;0.00;;;4.30;99.90;;;;;;5031480;28;20030;-72
2023/01/04 07:08:32;;;;;;;0.00;0.00;;;4.80;99.90;;;;;;5033112;28;20494;-72
2023/01/04 07:10:58;;;;;;;0.00;0.00;;;5.50;99.90;;;;;;5029376;28;20079;-73
2023/01/04 07:13:23;;;;;;;0.00;0.00;;;6.20;99.90;;;;;;5030523;28;20021;-73
2023/01/04 07:15:50;;;;;;;0.00;0.00;;;6.70;99.90;;;;;;5038650;28;20028;-73
2023/01/04 07:18:15;;;;;;;;;;;7.30;99.90;;;;;;5050026;28;20018;-74
2023/01/04 07:20:42;;;;;;;0.00;0.00;;;8.00;99.90;;;;;;5038312;28;19913;-74
2023/01/04 07:23:07;;;;;;;0.00;0.00;;;8.60;99.90;;;;;;5034171;28;20060;-73
2023/01/04 07:25:33;;;;;;;0.00;0.00;;;9.00;99.90;;;;;;5028569;28;20386;-74
2023/01/04 07:27:59;;;;;;;0.00;0.00;;;9.40;99.90;;;;;;5026480;28;20080;-73
2023/01/04 07:30:25;;;;;;;0.00;0.00;;;9.90;99.90;;;;;;5028352;28;20029;-73
2023/01/04 07:32:53;;;;;;;0.00;0.00;;;10.00;99.90;;;;;;5043626;28;20458;-73
2023/01/04 07:35:23;;;;;;;0.00;0.00;;;9.80;99.90;;;;;;5029083;28;20029;-73
2023/01/04 07:37:50;;;;;;;0.00;0.00;;;9.50;99.90;;;;;;5033011;28;20027;-73
2023/01/04 07:40:23;;;;;;;0.05;0.05;;;9.30;99.90;;;;;;5030449;28;20486;-73
2023/01/04 07:42:58;;;;;;;0.00;0.00;;;9.20;99.90;;;;;;5026170;28;20764;-74
2023/01/04 07:45:24;;;;;;;0.00;0.00;;;8.80;99.90;;;;;;5040489;28;20041;-73
2023/01/04 07:47:50;;;;;;;0.00;0.00;;;8.30;99.90;;;;;;5029736;28;20025;-74
2023/01/04 07:50:15;;;;;;;0.00;0.00;;;8.10;99.90;;;;;;5026515;28;20079;-74
2023/01/04 07:52:41;;;;;;;0.00;0.00;;;8.10;99.90;;;;;;5026785;28;20021;-73
2023/01/04 07:55:07;;;;;;;0.30;0.30;;;7.80;99.90;;;;;;5024999;28;20116;-73
2023/01/04 07:57:32;;;;;;;0.00;0.00;;;7.40;99.90;;;;;;5020289;28;20045;-73
2023/01/04 07:59:59;;;;;;;0.13;0.13;;;7.00;99.90;;;;;;5021874;28;20058;-74
2023/01/04 08:02:25;;;;;;;;;;;6.90;99.90;;;;;;5027151;28;20770;-74
2023/01/04 08:04:50;;;;;;;0.03;0.03;;;6.90;99.90;;;;;;5031466;28;19909;-74
2023/01/04 08:07:16;;;;;;;0.00;0.00;;;6.90;99.90;;;;;;5029084;28;20025;-73
2023/01/04 08:09:43;;;;;;;0.10;0.10;;;6.90;99.90;;;;;;5031281;28;20029;-74
2023/01/04 08:12:08;;;;;;;;;;;7.00;99.90;;;;;;5032885;28;20032;-73
2023/01/04 08:14:34;;;;;;;0.32;0.32;;;7.00;99.90;;;;;;5028575;28;20003;-74
2023/01/04 08:16:59;;;;;;;0.00;0.00;;;7.00;99.90;;;;;;5025987;28;20080;-72
2023/01/04 08:19:25;;;;;;;0.00;0.00;;;7.20;99.90;;;;;;5030416;28;20397;-76
2023/01/04 08:21:51;;;;;;;0.10;0.10;;;8.10;99.90;;;;;;5024421;28;20013;-73
2023/01/04 08:24:19;;;;;;;0.00;0.00;;;9.70;99.90;;;;;;5047413;28;20071;-74
2023/01/04 08:26:45;;;;;;;0.00;0.00;;;11.20;99.90;;;;;;5039742;28;20045;-74
2023/01/04 08:29:14;;;;;;;0.00;0.00;;;12.70;99.90;;;;;;5027534;28;20497;-74
2023/01/04 08:31:40;;;;;;;0.00;0.00;;;13.50;99.90;;;;;;5027924;28;20131;-74
2023/01/04 08:34:08;;;;;;;0.00;0.00;;;13.50;99.90;;;;;;5030067;28;20608;-74
2023/01/04 08:36:42;;;;;;;0.00;0.00;;;14.20;99.90;;;;;;5030604;28;20025;-75
2023/01/04 08:39:08;;;;;;;0.00;0.00;;;14.40;99.90;;;;;;5029668;28;20099;-75
2023/01/04 08:41:49;;;;;;;0.00;0.00;;;13.40;99.90;;;;;;5029158;28;20052;-75
2023/01/04 08:44:19;;;;;;;0.00;0.00;;;13.70;99.90;;;;;;5029938;28;20029;-76
2023/01/04 08:46:45;;;;;;;0.00;0.00;;;14.40;99.90;;;;;;5027305;28;20615;-75
2023/01/04 08:49:11;;;;;;;0.30;0.30;;;15.60;99.90;;;;;;5027184;28;20113;-73
2023/01/04 08:51:37;;;;;;;0.47;0.30;;;15.60;98.40;;;;;;5027532;28;20120;-73
2023/01/04 08:54:03;;;;;;;0.52;0.52;;;15.50;99.60;;;;;;5032825;28;20045;-73
2023/01/04 08:56:28;;;;;;;0.00;0.00;;;15.90;98.60;;;;;;5025539;28;20014;-73
2023/01/04 08:58:54;;;;;;;0.00;0.00;;;16.40;96.40;;;;;;5026413;28;20357;-73
2023/01/04 09:01:24;;;;;;;0.10;0.10;;;17.20;95.10;;;;;;5023979;28;20550;-73
2023/01/04 09:03:49;;;;;;;0.00;0.00;;;18.00;92.30;;;;;;5028154;28;20470;-73
2023/01/04 09:06:15;;;;;;;0.40;0.33;;;18.80;90.70;;;;;;5027519;28;20059;-73
2023/01/04 09:08:48;;;;;;;0.10;0.10;;;19.50;84.20;;;;;;5031631;28;20047;-73
2023/01/04 09:11:17;;;;;;;0.00;0.00;;;20.30;79.10;;;;;;5026121;28;20155;-73
2023/01/04 09:13:43;;;;;;;0.00;0.00;;;21.20;75.00;;;;;;5028866;28;20056;-74
2023/01/04 09:16:12;;;;;;;0.45;0.45;;;21.70;71.20;;;;;;5027187;28;20025;-73
2023/01/04 09:18:39;;;;;;;0.15;0.15;;;22.90;65.90;;;;;;5032240;28;20022;-73
2023/01/04 09:21:08;;;;;;;0.00;0.00;;;23.30;63.60;;;;;;5031445;28;20025;-76
2023/01/04 09:23:35;;;;;;;0.00;0.00;;;23.50;61.90;;;;;;5037512;28;20048;-73
2023/01/04 09:26:12;;;;;;;0.03;0.03;;;23.40;60.90;;;;;;5029140;28;20017;-72
2023/01/04 09:28:43;;;;;;;;;;;22.90;61.00;;;;;;5030043;28;20025;-72
2023/01/04 09:31:13;;;;;;;0.00;0.00;;;22.90;62.50;;;;;;5030582;28;19908;-74
2023/01/04 09:33:40;;;;;;;1.65;0.10;;;22.70;62.30;;;;;;5030799;28;20029;-75
2023/01/04 09:36:06;;;;;;;0.00;0.00;;;23.30;59.90;;;;;;5031468;28;20025;-73
2023/01/04 09:38:33;;;;;;;0.00;0.00;;;22.80;58.50;;;;;;5033298;28;20022;-72
2023/01/04 09:41:05;;;;;;;0.00;0.00;;;23.20;58.40;;;;;;5031227;28;20347;-74
2023/01/04 09:43:47;;;;;;;0.03;0.03;;;24.00;56.90;;;;;;5030988;28;20036;-73
2023/01/04 09:46:29;;;;;;;0.15;0.15;;;25.30;54.60;;;;;;5029351;28;20060;-73
2023/01/04 09:49:19;;;;;;;0.00;0.00;;;25.30;53.70;;;;;;5030001;28;20029;-72
2023/01/04 09:52:05;;;;;;;0.25;0.13;;;24.10;53.00;;;;;;5028530;28;20037;-73
2023/01/04 09:54:59;;;;;;;0.00;0.00;;;25.30;53.20;;;;;;5033811;28;20029;-73
2023/01/04 09:57:27;;;;;;;0.00;0.00;;;26.00;52.20;;;;;;5026161;28;20053;-73
2023/01/04 10:00:16;;;;;;;0.30;0.10;;;25.90;51.20;;;;;;5028108;28;20043;-72
2023/01/04 10:03:00;;;;;;;0.00;0.00;;;26.20;51.30;;;;;;5028881;28;20029;-74
2023/01/04 10:05:29;;;;;;;0.20;0.10;;;26.10;51.20;;;;;;5023745;28;20022;-72
2023/01/04 10:07:55;;;;;;;0.00;0.00;;;25.70;50.80;;;;;;5033044;28;20025;-73
2023/01/04 10:10:53;;;;;;;0.00;0.00;;;25.60;50.70;;;;;;5042039;28;20032;-72
2023/01/04 10:13:43;;;;;;;0.00;0.00;;;25.40;49.70;;;;;;5039985;28;20038;-72
2023/01/04 10:16:24;;;;;;;0.28;0.28;;;26.40;49.80;;;;;;5027850;28;20018;-72
2023/01/04 10:19:10;;;;;;;0.03;0.03;;;27.50;48.70;;;;;;5030991;28;20068;-72
2023/01/04 10:21:50;;;;;;;0.00;0.00;;;26.60;49.00;;;;;;5027820;28;20076;-72
2023/01/04 10:24:34;;;;;;;0.03;0.03;;;25.30;49.80;;;;;;5036084;28;20052;-73
2023/01/04 10:27:25;;;;;;;0.10;0.10;;;26.00;49.30;;;;;;5040713;28;20060;-73
2023/01/04 10:30:25;;;;;;;0.00;0.00;;;27.30;48.70;;;;;;5024159;28;20028;-74
2023/01/04 10:33:08;;;;;;;0.00;0.00;;;27.00;48.90;;;;;;5026204;28;20064;-72
2023/01/04 10:35:35;;;;;;;0.00;0.00;;;24.70;50.70;;;;;;5028853;28;20029;-73
2023/01/04 10:38:03;;;;;;;0.22;0.20;;;24.80;52.10;;;;;;5036439;28;20017;-73
2023/01/04 10:40:34;;;;;;;0.00;0.00;;;25.80;50.90;;;;;;5028667;28;20351;-73
2023/01/04 10:43:33;;;;;;;0.00;0.00;;;25.50;50.00;;;;;;5028300;28;20051;-72
2023/01/04 10:46:15;;;;;;;0.00;0.00;;;25.80;50.80;;;;;;5038229;28;20020;-72
2023/01/04 10:49:19;;;;;;;0.15;0.15;;;26.10;50.50;;;;;;5028366;28;20029;-73
2023/01/04 10:52:16;;;;;;;0.00;0.00;;;26.20;49.30;;;;;;4979773;28;20034;-73
2023/01/04 10:54:58;;;;;;;0.00;0.00;;;26.10;49.50;;;;;;4977893;28;20602;-73
2023/01/04 10:58:03;;;;;;;0.10;0.10;;;27.00;48.90;;;;;;4981338;28;20426;-74
2023/01/04 11:00:47;;;;;;;0.00;0.00;;;26.70;49.20;;;;;;5003000;28;20456;-73
2023/01/04 11:03:45;;;;;;;0.00;0.00;;;26.70;49.00;;;;;;5030773;28;20557;-74
2023/01/04 11:06:21;;;;;;;0.05;0.05;;;25.30;49.30;;;;;;5030868;28;20018;-73
2023/01/04 11:08:58;;;;;;;0.00;0.00;;;21.30;54.10;;;;;;5027570;28;20026;-73
2023/01/04 11:11:31;;;;;;;0.00;0.00;;;19.00;59.50;;;;;;5040708;28;20075;-72
2023/01/04 11:13:58;;;;;;;0.00;0.00;;;17.20;66.00;;;;;;5031465;28;20021;-73
2023/01/04 11:16:28;;;;;;;0.00;0.00;;;16.20;70.70;;;;;;5028219;28;20463;-73
2023/01/04 11:18:54;;;;;;;0.00;0.00;;;15.40;78.40;;;;;;5028119;28;20071;-73
2023/01/04 11:21:35;;;;;;;0.00;0.00;;;15.10;84.40;;;;;;5029535;28;20026;-75
2023/01/04 11:24:04;;;;;;;0.00;0.00;;;14.60;90.90;;;;;;5030287;28;20510;-76
2023/01/04 11:26:38;;;;;;;0.00;0.00;;;14.10;94.00;;;;;;5026564;28;20025;-74
2023/01/04 11:29:28;;;;;;;0.22;0.22;;;13.70;96.60;;;;;;5026790;28;20059;-76
2023/01/04 11:32:47;;;;;;;0.00;0.00;;;13.50;98.50;;;;;;5047844;28;20025;-75
2023/01/04 11:35:16;;;;;;;0.20;0.20;;;13.20;99.90;;;;;;5020949;28;20762;-76
2023/01/04 11:37:41;;;;;;;0.00;0.00;;;13.30;99.90;;;;;;5030888;28;20494;-76
2023/01/04 11:40:18;;;;;;;0.00;0.00;;;13.10;99.90;;;;;;5029121;28;20105;-75
2023/01/04 11:43:08;;;;;;;0.00;0.00;;;13.20;99.90;;;;;;5027298;28;20483;-76
2023/01/04 11:45:36;;;;;;;0.00;0.00;;;13.30;99.90;;;;;;5041910;28;20034;-76
2023/01/04 11:48:13;;;;;;;0.00;0.00;;;13.30;99.90;;;;;;5029524;28;20022;-76
2023/01/04 11:50:45;;;;;;;0.00;0.00;;;13.10;99.90;;;;;;5031478;28;20505;-76
2023/01/04 11:53:24;;;;;;;0.00;0.00;;;13.30;99.90;;;;;;5046232;28;20040;-75
2023/01/04 11:56:06;;;;;;;0.08;0.08;;;13.40;99.90;;;;;;5029349;28;20766;-75
2023/01/04 11:58:32;;;;;;;0.30;0.30;;;13.10;99.90;;;;;;5025574;28;20025;-75
2023/01/04 12:01:20;;;;;;;0.00;0.00;;;12.80;99.90;;;;;;5035957;28;20021;-82
2023/01/04 12:03:47;;;;;;;0.80;0.80;;;12.60;99.90;;;;;;5031235;28;20533;-75
2023/01/04 12:06:32;;;;;;;0.08;0.08;;;12.60;99.90;;;;;;5028119;28;20054;-76
2023/01/04 12:08:58;;;;;;;0.63;0.22;;;12.50;99.90;;;;;;5033463;28;20116;-75
2023/01/04 12:11:37;;;;;;;0.00;0.00;;;12.40;99.90;;;;;;5035251;28;20534;-76
2023/01/04 12:14:35;;;;;;;0.00;0.00;;;12.40;99.90;;;;;;5031821;28;20025;-76
2023/01/04 12:17:22;;;;;;;0.00;0.00;;;12.50;99.90;;;;;;5027561;28;20033;-76
2023/01/04 12:19:55;;;;;;;0.00;0.00;;;12.40;99.90;;;;;;5046539;28;20028;-75
2023/01/04 12:22:23;;;;;;;0.00;0.00;;;12.30;99.90;;;;;;5025536;28;20664;-76
2023/01/04 12:24:49;;;;;;;0.17;0.17;;;12.30;99.90;;;;;;5030776;28;20535;-75
2023/01/04 12:27:16;;;;;;;0.00;0.00;;;12.20;99.90;;;;;;5035100;28;20037;-76
2023/01/04 12:29:47;;;;;;;0.00;0.00;;;12.30;99.90;;;;;;5028185;28;20040;-75
2023/01/04 12:32:19;;;;;;;0.00;0.00;;;12.10;99.90;;;;;;5032939;28;20025;-76
2023/01/04 12:34:46;;;;;;;0.13;0.13;;;12.20;99.90;;;;;;5036181;28;20032;-76
2023/01/04 12:37:47;;;;;;;0.63;0.55;;;12.10;99.90;;;;;;5025532;28;20014;-76
2023/01/04 12:40:43;;;;;;;0.20;0.20;;;11.80;99.90;;;;;;5010653;28;20383;-74
2023/01/04 12:43:15;;;;;;;0.70;0.20;;;11.50;99.90;;;;;;5030396;28;20047;-76
2023/01/04 12:45:41;;;;;;;0.17;0.15;;;11.10;99.90;;;;;;5043595;28;20048;-76
2023/01/04 12:51:25;;;;;;;0.00;0.00;;;10.30;99.90;;;;;;5033778;28;20051;-76
2023/01/04 12:53:59;;;;;;;0.05;0.05;;;10.10;99.90;;;;;;5035985;28;20525;-76
2023/01/04 12:57:06;;;;;;;0.10;0.10;;;10.10;99.90;;;;;;5041411;28;20194;-75
2023/01/04 12:59:37;;;;;;;0.40;0.40;;;10.10;99.90;;;;;;5030902;28;20047;-76
2023/01/04 13:02:21;;;;;;;0.22;0.15;;;10.20;99.90;;;;;;5027646;28;20599;-75
2023/01/04 13:04:52;;;;;;;0.00;0.00;;;10.30;99.90;;;;;;5033393;28;20021;-75
2023/01/04 13:07:30;;;;;;;0.00;0.00;;;10.40;99.90;;;;;;5029330;28;20021;-75
2023/01/04 13:10:00;;;;;;;0.00;0.00;;;10.50;99.90;;;;;;5028228;28;20060;-75
2023/01/04 13:12:42;;;;;;;0.00;0.00;;;10.80;99.90;;;;;;5034950;28;20451;-75
2023/01/04 13:15:20;;;;;;;0.00;0.00;;;11.20;99.90;;;;;;5033311;28;20034;-76
2023/01/04 13:17:48;;;;;;;0.00;0.00;;;11.60;99.90;;;;;;5036845;28;20036;-76
2023/01/04 13:20:18;;;;;;;0.00;0.00;;;11.70;99.90;;;;;;5035530;28;20038;-75
2023/01/04 13:22:56;;;;;;;0.00;0.00;;;11.70;99.90;;;;;;5038397;28;20097;-75
2023/01/04 13:25:23;;;;;;;0.00;0.00;;;11.80;99.90;;;;;;5031861;28;20067;-75
2023/01/04 13:28:02;;;;;;;0.00;0.00;;;12.00;99.90;;;;;;5030278;28;20603;-76
2023/01/04 13:30:37;;;;;;;0.00;0.00;;;12.20;99.90;;;;;;5028276;28;20025;-75
2023/01/04 13:33:20;;;;;;;0.00;0.00;;;12.30;99.90;;;;;;5036121;28;20025;-76
2023/01/04 13:36:03;;;;;;;0.00;0.00;;;12.30;99.90;;;;;;5032524;28;20140;-75
2023/01/04 13:38:34;;;;;;;0.25;0.20;;;12.20;99.90;;;;;;5034412;28;20013;-75
2023/01/04 13:41:00;;;;;;;0.00;0.00;;;12.20;99.90;;;;;;5032961;28;20953;-75
2023/01/04 13:43:34;;;;;;;0.10;0.10;;;12.10;99.90;;;;;;5036788;28;20029;-75
2023/01/04 13:46:21;;;;;;;0.00;0.00;;;12.00;99.90;;;;;;5030642;28;21020;-75
2023/01/04 13:48:50;;;;;;;0.00;0.00;;;11.80;99.90;;;;;;5029749;28;20025;-75
2023/01/04 13:51:33;;;;;;;0.00;0.00;;;11.70;99.90;;;;;;5027900;28;20648;-75
2023/01/04 13:54:19;;;;;;;0.00;0.00;;;11.80;99.90;;;;;;5033995;28;20018;-76
2023/01/04 13:56:45;;;;;;;0.00;0.00;;;11.60;99.90;;;;;;5030832;28;20506;-75
2023/01/04 13:59:11;;;;;;;0.00;0.00;;;11.50;99.90;;;;;;5027968;28;20028;-76
2023/01/04 14:01:49;;;;;;;0.00;0.00;;;11.40;99.90;;;;;;5032648;28;20036;-76
2023/01/04 14:04:28;;;;;;;0.10;0.10;;;11.40;99.90;;;;;;5034331;28;20032;-76
2023/01/04 14:06:58;;;;;;;0.00;0.00;;;11.30;99.90;;;;;;5027221;28;20386;-76
2023/01/04 14:09:27;;;;;;;0.00;0.00;;;11.20;99.90;;;;;;5034173;28;20140;-75